createdAt,value
2023-02-18T00:00:09.549Z,10.48
2023-02-18T00:01:11.278Z,10.48
2023-02-18T00:02:13.073Z,10.47
2023-02-18T00:03:14.820Z,10.47
2023-02-18T00:04:16.536Z,10.47
2023-02-18T00:05:18.220Z,10.47
2023-02-18T00:06:19.978Z,10.47
2023-02-18T00:07:21.680Z,10.46
2023-02-18T00:08:23.425Z,10.46
2023-02-18T00:09:25.161Z,10.46
2023-02-18T00:10:26.896Z,10.46
2023-02-18T00:11:28.627Z,10.46
2023-02-18T00:12:30.364Z,10.47
2023-02-18T00:13:32.113Z,10.46
2023-02-18T00:14:33.833Z,10.46
2023-02-18T00:15:35.618Z,10.47
2023-02-18T00:16:37.307Z,10.47
2023-02-18T00:17:39.031Z,10.47
2023-02-18T00:18:40.767Z,10.47
2023-02-18T00:19:42.513Z,10.47
2023-02-18T00:20:44.244Z,10.48
2023-02-18T00:21:45.986Z,10.49
2023-02-18T00:22:47.707Z,10.5
2023-02-18T00:23:49.455Z,10.48
2023-02-18T00:24:51.175Z,10.49
2023-02-18T00:25:52.887Z,10.47
2023-02-18T00:26:54.651Z,10.47
2023-02-18T00:27:56.369Z,10.49
2023-02-18T00:28:58.127Z,10.48
2023-02-18T00:29:59.849Z,10.48
2023-02-18T00:31:01.668Z,10.49
2023-02-18T00:32:03.468Z,10.47
2023-02-18T00:33:05.050Z,10.48
2023-02-18T00:34:06.792Z,10.47
2023-02-18T00:35:08.519Z,10.48
2023-02-18T00:36:10.520Z,10.48
2023-02-18T00:37:11.979Z,10.48
2023-02-18T00:38:13.714Z,10.47
2023-02-18T00:39:15.473Z,10.46
2023-02-18T00:40:17.198Z,10.47
2023-02-18T00:41:18.921Z,10.47
2023-02-18T00:42:20.658Z,10.46
2023-02-18T00:43:22.382Z,10.45
2023-02-18T00:44:24.131Z,10.43
2023-02-18T00:45:25.854Z,10.45
2023-02-18T00:46:27.669Z,10.44
2023-02-18T00:47:29.316Z,10.43
2023-02-18T00:48:31.046Z,10.42
2023-02-18T00:49:32.973Z,10.41
2023-02-18T00:50:34.517Z,10.42
2023-02-18T00:51:36.339Z,10.4
2023-02-18T00:52:37.988Z,10.4
2023-02-18T00:53:39.741Z,10.39
2023-02-18T00:54:41.486Z,10.38
2023-02-18T00:55:43.203Z,10.38
2023-02-18T00:56:45.031Z,10.36
2023-02-18T00:57:46.669Z,10.35
2023-02-18T00:58:48.440Z,10.34
2023-02-18T00:59:50.107Z,10.34
2023-02-18T01:00:51.859Z,10.33
2023-02-18T01:01:53.613Z,10.32
2023-02-18T01:02:55.334Z,10.31
2023-02-18T01:03:57.072Z,10.3
2023-02-18T01:04:58.824Z,10.29
2023-02-18T01:06:00.537Z,10.28
2023-02-18T01:07:02.248Z,10.27
2023-02-18T01:08:04.021Z,10.26
2023-02-18T01:09:05.738Z,10.24
2023-02-18T01:10:07.482Z,10.24
2023-02-18T01:11:09.208Z,10.23
2023-02-18T01:12:10.966Z,10.22
2023-02-18T01:13:12.678Z,10.22
2023-02-18T01:14:14.418Z,10.22
2023-02-18T01:15:16.158Z,10.21
2023-02-18T01:16:17.932Z,10.2
2023-02-18T01:17:19.611Z,10.19
2023-02-18T01:18:21.360Z,10.19
2023-02-18T01:19:23.066Z,10.19
2023-02-18T01:20:24.808Z,10.19
2023-02-18T01:21:26.539Z,10.18
2023-02-18T01:22:28.288Z,10.18
2023-02-18T01:23:30.017Z,10.18
2023-02-18T01:24:31.758Z,10.16
2023-02-18T01:25:33.505Z,10.16
2023-02-18T01:26:35.204Z,10.15
2023-02-18T01:27:36.985Z,10.14
2023-02-18T01:28:38.775Z,10.14
2023-02-18T01:29:40.417Z,10.14
2023-02-18T01:30:42.159Z,10.13
2023-02-18T01:31:43.981Z,10.12
2023-02-18T01:32:45.632Z,10.11
2023-02-18T01:33:47.363Z,10.11
2023-02-18T01:34:49.083Z,10.11
2023-02-18T01:35:50.829Z,10.1
2023-02-18T01:36:52.562Z,10.09
2023-02-18T01:37:54.288Z,10.09
2023-02-18T01:38:56.023Z,10.08
2023-02-18T01:39:57.753Z,10.08
2023-02-18T01:40:59.502Z,10.08
2023-02-18T01:42:01.226Z,10.08
2023-02-18T01:43:02.960Z,10.08
2023-02-18T01:44:04.691Z,10.08
2023-02-18T01:45:06.417Z,10.09
2023-02-18T01:46:08.537Z,10.09
2023-02-18T01:47:09.880Z,10.09
2023-02-18T01:48:11.623Z,10.08
2023-02-18T01:49:13.357Z,10.08
2023-02-18T01:50:15.097Z,10.07
2023-02-18T01:51:16.846Z,10.08
2023-02-18T01:52:18.568Z,10.08
2023-02-18T01:53:20.304Z,10.07
2023-02-18T01:54:22.047Z,10.06
2023-02-18T01:55:23.763Z,10.06
2023-02-18T01:56:25.509Z,10.06
2023-02-18T01:57:27.241Z,10.05
2023-02-18T01:58:28.972Z,10.05
2023-02-18T01:59:30.714Z,10.04
2023-02-18T02:00:32.451Z,10.03
2023-02-18T02:01:34.233Z,10.02
2023-02-18T02:02:35.902Z,10.01
2023-02-18T02:03:37.636Z,10
2023-02-18T02:04:39.374Z,9.99
2023-02-18T02:05:41.102Z,9.98
2023-02-18T02:06:43.069Z,9.98
2023-02-18T02:07:44.579Z,9.97
2023-02-18T02:08:46.324Z,9.96
2023-02-18T02:09:48.048Z,9.96
2023-02-18T02:10:49.763Z,9.95
2023-02-18T02:11:51.504Z,9.95
2023-02-18T02:12:53.237Z,9.94
2023-02-18T02:13:54.970Z,9.93
2023-02-18T02:14:56.717Z,9.92
2023-02-18T02:15:58.502Z,9.91
2023-02-18T02:17:00.171Z,9.9
2023-02-18T02:18:01.901Z,9.89
2023-02-18T02:19:03.675Z,9.88
2023-02-18T02:20:05.397Z,9.87
2023-02-18T02:21:07.119Z,9.86
2023-02-18T02:22:08.861Z,9.85
2023-02-18T02:23:10.580Z,9.85
2023-02-18T02:24:12.334Z,9.85
2023-02-18T02:25:14.058Z,9.84
2023-02-18T02:26:15.785Z,9.84
2023-02-18T02:27:17.523Z,9.84
2023-02-18T02:28:19.257Z,9.85
2023-02-18T02:29:21.016Z,9.85
2023-02-18T02:30:22.769Z,9.85
2023-02-18T02:31:24.608Z,9.86
2023-02-18T02:32:26.187Z,9.85
2023-02-18T02:33:27.930Z,9.86
2023-02-18T02:34:29.653Z,9.86
2023-02-18T02:35:31.402Z,9.86
2023-02-18T02:36:33.113Z,9.87
2023-02-18T02:37:34.856Z,9.87
2023-02-18T02:38:36.613Z,9.86
2023-02-18T02:39:38.317Z,9.86
2023-02-18T02:40:40.071Z,9.86
2023-02-18T02:41:41.795Z,9.86
2023-02-18T02:42:43.541Z,9.86
2023-02-18T02:43:45.250Z,9.86
2023-02-18T02:44:47.014Z,9.85
2023-02-18T02:45:48.818Z,9.84
2023-02-18T02:46:50.512Z,9.84
2023-02-18T02:47:52.188Z,9.84
2023-02-18T02:48:53.929Z,9.82
2023-02-18T02:49:55.693Z,9.82
2023-02-18T02:50:57.396Z,9.81
2023-02-18T02:51:59.134Z,9.8
2023-02-18T02:53:00.856Z,9.8
2023-02-18T02:54:02.623Z,9.8
2023-02-18T02:55:04.357Z,9.8
2023-02-18T02:56:06.541Z,9.8
2023-02-18T02:57:07.858Z,9.79
2023-02-18T02:58:09.563Z,9.8
2023-02-18T02:59:11.284Z,9.79
2023-02-18T03:00:13.041Z,9.79
2023-02-18T03:01:14.806Z,9.79
2023-02-18T03:02:16.470Z,9.79
2023-02-18T03:03:18.254Z,9.79
2023-02-18T03:04:19.994Z,9.79
2023-02-18T03:05:21.698Z,9.79
2023-02-18T03:06:23.415Z,9.79
2023-02-18T03:07:25.142Z,9.8
2023-02-18T03:08:26.893Z,9.79
2023-02-18T03:09:28.613Z,9.79
2023-02-18T03:10:30.568Z,9.79
2023-02-18T03:11:32.082Z,9.79
2023-02-18T03:12:33.860Z,9.8
2023-02-18T03:13:35.564Z,9.8
2023-02-18T03:14:37.284Z,9.81
2023-02-18T03:15:39.044Z,9.81
2023-02-18T03:16:40.794Z,9.81
2023-02-18T03:17:42.512Z,9.81
2023-02-18T03:18:44.244Z,9.81
2023-02-18T03:19:45.961Z,9.81
2023-02-18T03:20:47.776Z,9.82
2023-02-18T03:21:49.544Z,9.83
2023-02-18T03:22:51.178Z,9.84
2023-02-18T03:23:52.901Z,9.85
2023-02-18T03:24:54.626Z,9.85
2023-02-18T03:25:56.357Z,9.85
2023-02-18T03:26:58.082Z,9.86
2023-02-18T03:27:59.842Z,9.86
2023-02-18T03:29:01.635Z,9.87
2023-02-18T03:30:03.551Z,9.86
2023-02-18T03:31:05.071Z,9.87
2023-02-18T03:32:06.821Z,9.88
2023-02-18T03:33:08.519Z,9.88
2023-02-18T03:34:10.424Z,9.88
2023-02-18T03:35:12.010Z,9.9
2023-02-18T03:36:13.695Z,9.9
2023-02-18T03:37:15.427Z,9.91
2023-02-18T03:38:17.178Z,9.9
2023-02-18T03:39:18.928Z,9.9
2023-02-18T03:40:20.635Z,9.91
2023-02-18T03:41:22.385Z,9.91
2023-02-18T03:42:24.108Z,9.91
2023-02-18T03:43:25.852Z,9.91
2023-02-18T03:44:27.573Z,9.92
2023-02-18T03:45:29.293Z,9.91
2023-02-18T03:46:31.034Z,9.92
2023-02-18T03:47:32.786Z,9.92
2023-02-18T03:48:34.514Z,9.91
2023-02-18T03:49:36.251Z,9.91
2023-02-18T03:50:37.969Z,9.9
2023-02-18T03:51:39.715Z,9.9
2023-02-18T03:52:41.456Z,9.91
2023-02-18T03:53:43.191Z,9.9
2023-02-18T03:54:44.903Z,9.9
2023-02-18T03:55:46.637Z,9.9
2023-02-18T03:56:48.393Z,9.9
2023-02-18T03:57:50.104Z,9.9
2023-02-18T03:58:51.852Z,9.89
2023-02-18T03:59:53.585Z,9.88
2023-02-18T04:00:55.361Z,9.88
2023-02-18T04:01:57.033Z,9.87
2023-02-18T04:02:58.770Z,9.87
2023-02-18T04:04:00.599Z,9.86
2023-02-18T04:05:02.295Z,9.86
2023-02-18T04:06:03.983Z,9.86
2023-02-18T04:07:05.704Z,9.85
2023-02-18T04:08:07.432Z,9.83
2023-02-18T04:09:09.483Z,9.82
2023-02-18T04:10:10.924Z,9.82
2023-02-18T04:11:12.682Z,9.81
2023-02-18T04:12:14.387Z,9.8
2023-02-18T04:13:16.109Z,9.81
2023-02-18T04:14:17.849Z,9.8
2023-02-18T04:15:19.583Z,9.8
2023-02-18T04:16:21.353Z,9.79
2023-02-18T04:17:23.058Z,9.8
2023-02-18T04:18:24.785Z,9.79
2023-02-18T04:19:26.532Z,9.79
2023-02-18T04:20:28.241Z,9.78
2023-02-18T04:21:29.971Z,9.77
2023-02-18T04:22:31.708Z,9.78
2023-02-18T04:23:33.457Z,9.76
2023-02-18T04:24:35.167Z,9.76
2023-02-18T04:25:36.924Z,9.77
2023-02-18T04:26:38.647Z,9.76
2023-02-18T04:27:40.373Z,9.75
2023-02-18T04:28:42.122Z,9.75
2023-02-18T04:29:43.848Z,9.74
2023-02-18T04:30:45.675Z,9.73
2023-02-18T04:31:47.394Z,9.73
2023-02-18T04:32:49.057Z,9.71
2023-02-18T04:33:50.797Z,9.7
2023-02-18T04:34:52.511Z,9.7
2023-02-18T04:35:54.258Z,9.71
2023-02-18T04:36:55.982Z,9.7
2023-02-18T04:37:57.724Z,9.68
2023-02-18T04:38:59.500Z,9.68
2023-02-18T04:40:01.230Z,9.67
2023-02-18T04:41:02.927Z,9.67
2023-02-18T04:42:04.641Z,9.66
2023-02-18T04:43:06.383Z,9.66
2023-02-18T04:44:08.133Z,9.64
2023-02-18T04:45:09.875Z,9.64
2023-02-18T04:46:11.823Z,9.64
2023-02-18T04:47:13.319Z,9.63
2023-02-18T04:48:15.046Z,9.63
2023-02-18T04:49:16.807Z,9.62
2023-02-18T04:50:18.549Z,9.62
2023-02-18T04:51:20.248Z,9.61
2023-02-18T04:52:21.989Z,9.6
2023-02-18T04:53:23.739Z,9.61
2023-02-18T04:54:25.474Z,9.59
2023-02-18T04:55:27.200Z,9.6
2023-02-18T04:56:28.921Z,9.58
2023-02-18T04:57:30.675Z,9.6
2023-02-18T04:58:32.473Z,9.59
2023-02-18T04:59:34.125Z,9.6
2023-02-18T05:00:35.869Z,9.61
2023-02-18T05:01:37.663Z,9.61
2023-02-18T05:02:39.418Z,9.6
2023-02-18T05:03:41.121Z,9.61
2023-02-18T05:04:42.915Z,9.61
2023-02-18T05:05:44.542Z,9.61
2023-02-18T05:06:46.303Z,9.62
2023-02-18T05:07:48.013Z,9.62
2023-02-18T05:08:49.771Z,9.62
2023-02-18T05:09:51.477Z,9.62
2023-02-18T05:10:53.217Z,9.61
2023-02-18T05:11:54.947Z,9.62
2023-02-18T05:12:56.675Z,9.62
2023-02-18T05:13:58.407Z,9.62
2023-02-18T05:15:00.155Z,9.61
2023-02-18T05:16:01.928Z,9.62
2023-02-18T05:17:03.626Z,9.62
2023-02-18T05:18:05.335Z,9.62
2023-02-18T05:19:07.103Z,9.62
2023-02-18T05:20:09.957Z,9.61
2023-02-18T05:21:10.547Z,9.61
2023-02-18T05:22:12.280Z,9.6
2023-02-18T05:23:14.196Z,9.6
2023-02-18T05:24:15.747Z,9.6
2023-02-18T05:25:17.490Z,9.59
2023-02-18T05:26:19.215Z,9.58
2023-02-18T05:27:20.953Z,9.59
2023-02-18T05:28:22.674Z,9.59
2023-02-18T05:29:24.432Z,9.59
2023-02-18T05:30:26.227Z,9.58
2023-02-18T05:31:28.012Z,9.58
2023-02-18T05:32:29.615Z,9.59
2023-02-18T05:33:31.344Z,9.59
2023-02-18T05:34:33.081Z,9.6
2023-02-18T05:35:34.816Z,9.61
2023-02-18T05:36:36.557Z,9.61
2023-02-18T05:37:38.297Z,9.61
2023-02-18T05:38:40.035Z,9.62
2023-02-18T05:39:41.784Z,9.63
2023-02-18T05:40:43.485Z,9.62
2023-02-18T05:41:45.225Z,9.63
2023-02-18T05:42:46.943Z,9.63
2023-02-18T05:43:48.681Z,9.64
2023-02-18T05:44:50.420Z,9.64
2023-02-18T05:45:52.166Z,9.64
2023-02-18T05:46:53.888Z,9.63
2023-02-18T05:47:55.623Z,9.63
2023-02-18T05:48:57.365Z,9.63
2023-02-18T05:49:59.092Z,9.63
2023-02-18T05:51:00.852Z,9.63
2023-02-18T05:52:02.548Z,9.62
2023-02-18T05:53:04.291Z,9.62
2023-02-18T05:54:06.032Z,9.62
2023-02-18T05:55:07.761Z,9.62
2023-02-18T05:56:09.803Z,9.63
2023-02-18T05:57:11.239Z,9.62
2023-02-18T05:58:12.964Z,9.62
2023-02-18T05:59:14.710Z,9.61
2023-02-18T06:00:16.453Z,9.61
2023-02-18T06:01:18.170Z,9.6
2023-02-18T06:02:19.941Z,9.6
2023-02-18T06:03:21.622Z,9.6
2023-02-18T06:04:23.388Z,9.6
2023-02-18T06:05:25.295Z,9.59
2023-02-18T06:06:26.842Z,9.59
2023-02-18T06:07:28.567Z,9.58
2023-02-18T06:08:30.301Z,9.58
2023-02-18T06:09:32.048Z,9.56
2023-02-18T06:10:33.787Z,9.57
2023-02-18T06:11:35.499Z,9.57
2023-02-18T06:12:37.238Z,9.57
2023-02-18T06:13:38.971Z,9.56
2023-02-18T06:14:42.067Z,9.56
2023-02-18T06:15:42.484Z,9.56
2023-02-18T06:16:44.176Z,9.55
2023-02-18T06:17:45.916Z,9.55
2023-02-18T06:18:47.660Z,9.54
2023-02-18T06:19:49.382Z,9.53
2023-02-18T06:20:51.118Z,9.51
2023-02-18T06:21:52.848Z,9.51
2023-02-18T06:22:54.577Z,9.5
2023-02-18T06:23:56.311Z,9.5
2023-02-18T06:24:58.044Z,9.49
2023-02-18T06:25:59.781Z,9.48
2023-02-18T06:27:01.524Z,9.47
2023-02-18T06:28:03.249Z,9.47
2023-02-18T06:29:05.008Z,9.45
2023-02-18T06:30:06.740Z,9.45
2023-02-18T06:31:08.566Z,9.46
2023-02-18T06:32:10.260Z,9.44
2023-02-18T06:33:11.907Z,9.45
2023-02-18T06:34:13.645Z,9.44
2023-02-18T06:35:15.382Z,9.45
2023-02-18T06:36:17.241Z,9.46
2023-02-18T06:37:18.827Z,9.46
2023-02-18T06:38:20.607Z,9.45
2023-02-18T06:39:22.315Z,9.46
2023-02-18T06:40:24.034Z,9.45
2023-02-18T06:41:25.773Z,9.46
2023-02-18T06:42:27.508Z,9.45
2023-02-18T06:43:29.224Z,9.45
2023-02-18T06:44:30.997Z,9.45
2023-02-18T06:45:32.701Z,9.46
2023-02-18T06:46:34.477Z,9.46
2023-02-18T06:47:36.178Z,9.46
2023-02-18T06:48:37.923Z,9.47
2023-02-18T06:49:39.655Z,9.48
2023-02-18T06:50:42.991Z,9.5
2023-02-18T06:51:43.133Z,9.49
2023-02-18T06:52:44.835Z,9.49
2023-02-18T06:53:46.590Z,9.5
2023-02-18T06:54:48.317Z,9.5
2023-02-18T06:55:50.052Z,9.49
2023-02-18T06:56:51.774Z,9.47
2023-02-18T06:57:53.527Z,9.48
2023-02-18T06:58:55.258Z,9.46
2023-02-18T06:59:56.982Z,9.46
2023-02-18T07:00:58.953Z,9.46
2023-02-18T07:02:00.443Z,9.45
2023-02-18T07:03:02.213Z,9.44
2023-02-18T07:04:04.020Z,9.43
2023-02-18T07:05:05.645Z,9.43
2023-02-18T07:06:07.670Z,9.41
2023-02-18T07:07:09.115Z,9.4
2023-02-18T07:08:10.869Z,9.39
2023-02-18T07:09:12.611Z,9.38
2023-02-18T07:10:14.335Z,9.37
2023-02-18T07:11:16.075Z,9.35
2023-02-18T07:12:17.778Z,9.35
2023-02-18T07:13:19.507Z,9.34
2023-02-18T07:14:21.266Z,9.33
2023-02-18T07:15:23.018Z,9.33
2023-02-18T07:16:24.757Z,9.33
2023-02-18T07:17:26.453Z,9.34
2023-02-18T07:18:28.180Z,9.34
2023-02-18T07:19:29.940Z,9.35
2023-02-18T07:20:31.665Z,9.34
2023-02-18T07:21:33.453Z,9.34
2023-02-18T07:22:35.127Z,9.34
2023-02-18T07:23:36.853Z,9.34
2023-02-18T07:24:38.596Z,9.35
2023-02-18T07:25:40.320Z,9.35
2023-02-18T07:26:42.056Z,9.34
2023-02-18T07:27:43.785Z,9.34
2023-02-18T07:28:45.512Z,9.34
2023-02-18T07:29:47.244Z,9.34
2023-02-18T07:30:49.104Z,9.34
2023-02-18T07:31:50.816Z,9.34
2023-02-18T07:32:52.463Z,9.34
2023-02-18T07:33:54.195Z,9.34
2023-02-18T07:34:55.925Z,9.34
2023-02-18T07:35:57.665Z,9.34
2023-02-18T07:36:59.389Z,9.33
2023-02-18T07:38:01.120Z,9.32
2023-02-18T07:39:02.905Z,9.32
2023-02-18T07:40:04.580Z,9.31
2023-02-18T07:41:06.332Z,9.32
2023-02-18T07:42:08.077Z,9.32
2023-02-18T07:43:09.775Z,9.32
2023-02-18T07:44:11.533Z,9.33
2023-02-18T07:45:13.267Z,9.33
2023-02-18T07:46:15.029Z,9.33
2023-02-18T07:47:16.714Z,9.33
2023-02-18T07:48:18.455Z,9.34
2023-02-18T07:49:20.195Z,9.35
2023-02-18T07:50:21.930Z,9.35
2023-02-18T07:51:23.835Z,9.36
2023-02-18T07:52:25.397Z,9.36
2023-02-18T07:53:27.136Z,9.38
2023-02-18T07:54:28.878Z,9.37
2023-02-18T07:55:30.595Z,9.37
2023-02-18T07:56:32.310Z,9.38
2023-02-18T07:57:34.077Z,9.38
2023-02-18T07:58:35.792Z,9.4
2023-02-18T07:59:37.535Z,9.39
2023-02-18T08:00:39.269Z,9.4
2023-02-18T08:01:41.243Z,9.39
2023-02-18T08:02:42.780Z,9.4
2023-02-18T08:03:44.497Z,9.4
2023-02-18T08:04:46.219Z,9.4
2023-02-18T08:05:47.940Z,9.41
2023-02-18T08:06:49.686Z,9.41
2023-02-18T08:07:51.408Z,9.43
2023-02-18T08:08:53.140Z,9.44
2023-02-18T08:09:54.863Z,9.45
2023-02-18T08:10:56.635Z,9.46
2023-02-18T08:11:58.344Z,9.52
2023-02-18T08:13:00.113Z,9.63
2023-02-18T08:14:01.805Z,9.61
2023-02-18T08:15:03.561Z,9.64
2023-02-18T08:16:05.271Z,9.67
2023-02-18T08:17:07.012Z,9.75
2023-02-18T08:18:08.748Z,9.79
2023-02-18T08:19:10.477Z,9.84
2023-02-18T08:20:12.228Z,10
2023-02-18T08:21:13.950Z,10.09
2023-02-18T08:22:15.689Z,10.12
2023-02-18T08:23:17.408Z,10.26
2023-02-18T08:24:19.156Z,10.34
2023-02-18T08:25:29.372Z,10.33
2023-02-18T08:26:22.617Z,10.34
2023-02-18T08:27:24.335Z,10.35
2023-02-18T08:28:26.098Z,10.43
2023-02-18T08:29:27.851Z,10.43
2023-02-18T08:30:29.668Z,10.42
2023-02-18T08:31:31.401Z,10.43
2023-02-18T08:32:33.022Z,10.41
2023-02-18T08:33:34.771Z,10.37
2023-02-18T08:34:36.487Z,10.36
2023-02-18T08:35:38.235Z,10.32
2023-02-18T08:36:39.980Z,10.29
2023-02-18T08:37:52.260Z,10.26
2023-02-18T08:38:43.431Z,10.25
2023-02-18T08:39:45.167Z,10.22
2023-02-18T08:40:46.892Z,10.18
2023-02-18T08:41:48.650Z,10.14
2023-02-18T08:42:50.404Z,10.1
2023-02-18T08:43:52.093Z,10.07
2023-02-18T08:44:53.834Z,10.05
2023-02-18T08:45:55.683Z,10.02
2023-02-18T08:46:57.374Z,9.99
2023-02-18T08:48:13.535Z,9.99
2023-02-18T08:49:00.783Z,9.98
2023-02-18T08:50:02.502Z,9.97
2023-02-18T08:51:05.306Z,9.96
2023-02-18T08:52:05.969Z,9.98
2023-02-18T08:53:07.711Z,9.97
2023-02-18T08:54:09.470Z,9.96
2023-02-18T08:55:11.161Z,9.97
2023-02-18T08:56:12.921Z,9.98
2023-02-18T08:57:14.650Z,9.96
2023-02-18T08:58:16.369Z,9.96
2023-02-18T08:59:18.098Z,9.95
2023-02-18T09:00:19.840Z,9.95
2023-02-18T09:01:21.603Z,9.93
2023-02-18T09:02:23.307Z,9.92
2023-02-18T09:03:25.032Z,9.92
2023-02-18T09:04:26.790Z,9.91
2023-02-18T09:05:28.504Z,9.89
2023-02-18T09:06:30.233Z,9.89
2023-02-18T09:07:31.968Z,9.88
2023-02-18T09:08:33.714Z,9.87
2023-02-18T09:09:35.827Z,9.87
2023-02-18T09:10:37.200Z,9.86
2023-02-18T09:11:38.906Z,9.86
2023-02-18T09:12:40.645Z,9.86
2023-02-18T09:13:42.374Z,9.86
2023-02-18T09:14:44.344Z,9.86
2023-02-18T09:15:45.853Z,9.87
2023-02-18T09:16:47.564Z,9.88
2023-02-18T09:17:49.301Z,9.89
2023-02-18T09:18:51.050Z,9.88
2023-02-18T09:19:52.787Z,9.89
2023-02-18T09:20:54.513Z,9.9
2023-02-18T09:21:56.312Z,9.9
2023-02-18T09:22:57.976Z,9.91
2023-02-18T09:23:59.715Z,9.92
2023-02-18T09:25:01.467Z,9.92
2023-02-18T09:26:03.169Z,9.93
2023-02-18T09:27:04.912Z,9.93
2023-02-18T09:28:06.635Z,9.94
2023-02-18T09:29:08.368Z,9.95
2023-02-18T09:30:10.148Z,9.95
2023-02-18T09:31:12.438Z,9.95
2023-02-18T09:32:20.001Z,9.96
2023-02-18T09:33:15.305Z,9.95
2023-02-18T09:34:17.043Z,9.96
2023-02-18T09:35:18.782Z,9.97
2023-02-18T09:36:20.527Z,9.96
2023-02-18T09:37:22.233Z,9.97
2023-02-18T09:38:23.954Z,9.98
2023-02-18T09:39:25.694Z,9.96
2023-02-18T09:40:27.442Z,9.96
2023-02-18T09:41:29.142Z,9.96
2023-02-18T09:42:30.877Z,9.96
2023-02-18T09:43:32.613Z,9.95
2023-02-18T09:44:34.392Z,9.95
2023-02-18T09:45:36.073Z,9.95
2023-02-18T09:46:37.803Z,9.94
2023-02-18T09:47:39.543Z,9.95
2023-02-18T09:48:41.256Z,9.95
2023-02-18T09:49:43.022Z,9.96
2023-02-18T09:50:44.736Z,9.97
2023-02-18T09:51:46.471Z,9.96
2023-02-18T09:52:48.203Z,9.97
2023-02-18T09:53:49.931Z,9.97
2023-02-18T09:54:51.667Z,9.98
2023-02-18T09:55:53.406Z,9.99
2023-02-18T09:56:55.157Z,9.99
2023-02-18T09:57:56.863Z,9.99
2023-02-18T09:58:58.615Z,9.99
2023-02-18T10:00:00.333Z,9.99
2023-02-18T10:01:02.088Z,9.99
2023-02-18T10:02:03.789Z,9.98
2023-02-18T10:03:05.539Z,9.98
2023-02-18T10:04:07.281Z,9.99
2023-02-18T10:05:09.008Z,9.99
2023-02-18T10:06:11.106Z,10.01
2023-02-18T10:07:12.484Z,10.02
2023-02-18T10:08:14.216Z,10
2023-02-18T10:09:15.971Z,10
2023-02-18T10:10:17.683Z,9.99
2023-02-18T10:11:19.399Z,9.98
2023-02-18T10:12:21.150Z,9.99
2023-02-18T10:13:22.875Z,9.99
2023-02-18T10:14:59.840Z,10.01
2023-02-18T10:16:00.208Z,10.01
2023-02-18T10:17:01.886Z,10.03
2023-02-18T10:18:03.648Z,10.03
2023-02-18T10:19:05.360Z,10.06
2023-02-18T10:20:08.467Z,10.08
2023-02-18T10:21:09.162Z,10.1
2023-02-18T10:22:10.577Z,10.12
2023-02-18T10:23:12.306Z,10.14
2023-02-18T10:24:14.050Z,10.16
2023-02-18T10:25:15.781Z,10.15
2023-02-18T10:26:17.512Z,10.14
2023-02-18T10:27:19.219Z,10.13
2023-02-18T10:28:20.958Z,10.12
2023-02-18T10:29:22.697Z,10.1
2023-02-18T10:30:24.561Z,10.1
2023-02-18T10:31:26.273Z,10.09
2023-02-18T10:32:27.894Z,10.08
2023-02-18T10:33:29.644Z,10.08
2023-02-18T10:34:31.393Z,10.08
2023-02-18T10:35:33.120Z,10.07
2023-02-18T10:36:34.841Z,10.08
2023-02-18T10:37:36.559Z,10.08
2023-02-18T10:38:38.313Z,10.1
2023-02-18T10:39:40.033Z,10.12
2023-02-18T10:40:41.780Z,10.18
2023-02-18T10:41:43.529Z,10.24
2023-02-18T10:42:45.254Z,10.26
2023-02-18T10:43:46.973Z,10.28
2023-02-18T10:44:48.740Z,10.28
2023-02-18T10:45:50.458Z,10.31
2023-02-18T10:46:52.258Z,10.32
2023-02-18T10:47:53.913Z,10.31
2023-02-18T10:48:55.633Z,10.32
2023-02-18T10:49:57.393Z,10.31
2023-02-18T10:50:59.115Z,10.32
2023-02-18T10:52:00.840Z,10.32
2023-02-18T10:53:02.585Z,10.3
2023-02-18T10:54:04.371Z,10.33
2023-02-18T10:55:06.069Z,10.32
2023-02-18T10:56:07.841Z,10.32
2023-02-18T10:57:09.535Z,10.32
2023-02-18T10:58:15.708Z,10.32
2023-02-18T10:59:18.143Z,10.34
2023-02-18T11:00:19.869Z,10.34
2023-02-18T11:01:21.636Z,10.34
2023-02-18T11:02:23.342Z,10.34
2023-02-18T11:03:25.082Z,10.32
2023-02-18T11:04:26.864Z,10.3
2023-02-18T11:05:28.541Z,10.29
2023-02-18T11:06:30.277Z,10.28
2023-02-18T11:07:32.015Z,10.27
2023-02-18T11:08:33.764Z,10.26
2023-02-18T11:09:35.482Z,10.26
2023-02-18T11:10:37.195Z,10.26
2023-02-18T11:11:38.954Z,10.27
2023-02-18T11:12:40.692Z,10.28
2023-02-18T11:13:42.415Z,10.29
2023-02-18T11:14:44.164Z,10.32
2023-02-18T11:15:45.924Z,10.34
2023-02-18T11:16:47.624Z,10.35
2023-02-18T11:17:49.358Z,10.37
2023-02-18T11:18:51.086Z,10.38
2023-02-18T11:19:52.806Z,10.39
2023-02-18T11:20:54.529Z,10.41
2023-02-18T11:21:56.252Z,10.44
2023-02-18T11:22:57.978Z,10.46
2023-02-18T11:23:59.932Z,10.46
2023-02-18T11:25:01.442Z,10.44
2023-02-18T11:26:03.174Z,10.45
2023-02-18T11:27:04.914Z,10.47
2023-02-18T11:28:06.649Z,10.49
2023-02-18T11:29:08.392Z,10.49
2023-02-18T11:30:10.231Z,10.5
2023-02-18T11:31:12.214Z,10.5
2023-02-18T11:32:13.725Z,10.47
2023-02-18T11:33:16.092Z,10.47
2023-02-18T11:34:17.080Z,10.47
2023-02-18T11:35:18.781Z,10.46
2023-02-18T11:36:20.501Z,10.47
2023-02-18T11:37:22.239Z,10.47
2023-02-18T11:38:23.969Z,10.49
2023-02-18T11:39:25.725Z,10.5
2023-02-18T11:40:27.456Z,10.51
2023-02-18T11:41:29.180Z,10.52
2023-02-18T11:42:30.906Z,10.53
2023-02-18T11:43:32.669Z,10.54
2023-02-18T11:44:34.403Z,10.56
2023-02-18T11:45:36.124Z,10.56
2023-02-18T11:46:37.872Z,10.57
2023-02-18T11:47:39.598Z,10.59
2023-02-18T11:48:41.368Z,10.59
2023-02-18T11:49:43.063Z,10.61
2023-02-18T11:50:44.785Z,10.59
2023-02-18T11:51:46.515Z,10.6
2023-02-18T11:52:48.256Z,10.59
2023-02-18T11:53:49.981Z,10.57
2023-02-18T11:54:51.740Z,10.58
2023-02-18T11:55:53.452Z,10.56
2023-02-18T11:56:55.200Z,10.55
2023-02-18T11:57:56.952Z,10.55
2023-02-18T11:58:58.669Z,10.55
2023-02-18T12:00:00.405Z,10.55
2023-02-18T12:01:02.126Z,10.57
2023-02-18T12:02:03.900Z,10.54
2023-02-18T12:03:05.606Z,10.54
2023-02-18T12:04:07.327Z,10.54
2023-02-18T12:05:09.167Z,10.52
2023-02-18T12:06:10.986Z,10.48
2023-02-18T12:07:12.536Z,10.46
2023-02-18T12:08:14.280Z,10.46
2023-02-18T12:09:16.013Z,10.44
2023-02-18T12:10:17.739Z,10.42
2023-02-18T12:11:19.480Z,10.41
2023-02-18T12:12:21.210Z,10.38
2023-02-18T12:13:22.940Z,10.37
2023-02-18T12:14:24.693Z,10.36
2023-02-18T12:15:26.423Z,10.35
2023-02-18T12:16:28.152Z,10.33
2023-02-18T12:17:29.884Z,10.31
2023-02-18T12:18:31.611Z,10.32
2023-02-18T12:19:33.373Z,10.31
2023-02-18T12:20:35.091Z,10.3
2023-02-18T12:21:36.819Z,10.28
2023-02-18T12:22:38.561Z,10.27
2023-02-18T12:23:40.283Z,10.27
2023-02-18T12:24:42.060Z,10.26
2023-02-18T12:25:43.764Z,10.25
2023-02-18T12:26:45.493Z,10.26
2023-02-18T12:27:47.221Z,10.25
2023-02-18T12:28:48.982Z,10.26
2023-02-18T12:29:50.702Z,10.27
2023-02-18T12:30:52.432Z,10.29
2023-02-18T12:31:54.255Z,10.31
2023-02-18T12:32:55.890Z,10.33
2023-02-18T12:33:57.643Z,10.34
2023-02-18T12:34:59.365Z,10.37
2023-02-18T12:36:01.092Z,10.37
2023-02-18T12:37:02.821Z,10.38
2023-02-18T12:38:04.558Z,10.39
2023-02-18T12:39:06.312Z,10.41
2023-02-18T12:40:08.140Z,10.43
2023-02-18T12:41:10.109Z,10.45
2023-02-18T12:42:11.506Z,10.48
2023-02-18T12:43:13.242Z,10.51
2023-02-18T12:44:14.986Z,10.51
2023-02-18T12:45:16.701Z,10.53
2023-02-18T12:46:18.443Z,10.54
2023-02-18T12:47:20.159Z,10.56
2023-02-18T12:48:21.893Z,10.57
2023-02-18T12:49:23.661Z,10.57
2023-02-18T12:50:25.379Z,10.57
2023-02-18T12:51:29.416Z,10.57
2023-02-18T12:52:28.846Z,10.57
2023-02-18T12:53:30.565Z,10.57
2023-02-18T12:54:32.320Z,10.57
2023-02-18T12:55:34.042Z,10.59
2023-02-18T12:56:35.767Z,10.59
2023-02-18T12:57:37.535Z,10.6
2023-02-18T12:58:39.236Z,10.59
2023-02-18T12:59:40.968Z,10.6
2023-02-18T13:00:42.698Z,10.6
2023-02-18T13:01:44.414Z,10.6
2023-02-18T13:02:46.176Z,10.59
2023-02-18T13:03:47.871Z,10.59
2023-02-18T13:04:49.611Z,10.58
2023-02-18T13:05:51.327Z,10.57
2023-02-18T13:06:53.088Z,10.57
2023-02-18T13:07:54.832Z,10.58
2023-02-18T13:08:56.543Z,10.58
2023-02-18T13:09:58.507Z,10.56
2023-02-18T13:11:00.014Z,10.55
2023-02-18T13:12:01.764Z,10.54
2023-02-18T13:13:03.484Z,10.55
2023-02-18T13:14:05.209Z,10.54
2023-02-18T13:15:06.976Z,10.53
2023-02-18T13:16:09.081Z,10.51
2023-02-18T13:17:10.431Z,10.5
2023-02-18T13:18:12.146Z,10.5
2023-02-18T13:19:13.901Z,10.47
2023-02-18T13:20:15.624Z,10.47
2023-02-18T13:21:17.353Z,10.47
2023-02-18T13:22:19.133Z,10.44
2023-02-18T13:23:20.823Z,10.43
2023-02-18T13:24:22.561Z,10.41
2023-02-18T13:25:24.303Z,10.4
2023-02-18T13:26:26.037Z,10.38
2023-02-18T13:27:27.756Z,10.38
2023-02-18T13:28:29.502Z,10.38
2023-02-18T13:29:31.227Z,10.38
2023-02-18T13:30:33.042Z,10.38
2023-02-18T13:31:34.761Z,10.37
2023-02-18T13:32:36.452Z,10.36
2023-02-18T13:33:38.161Z,10.37